Noshiro, Japan
Current Conditions -  °F | °C
As of 9:00 PM on Wednesday 26 Nov 2014 (Local Time) from RJSK Reporting Station
Light Rain Light Rain  
Wind Chill: 34°   Ceiling: 4000
Heat Index: 39°   Visibility: 6mi
Dew Point: 37°   Wind: 8mph
Humidity: 93%   Direction: 130°SE
Pressure: 30.03"   Gusts: NA
Location:  40.2°N, 140.03°E
Report Text: RJSK 261200Z 13007KT 9999 -RA FEW010 BKN040 BKN060 04/03 Q1017
Loading
Personal Weather Stations






























Interactive Weather Map New forecast layout! Learn more

10-Day Weather Forecast

Advertisements
Track Severe Weather on mobile